Time;durP1;ratioP1;P1;durP2;ratioP2;P2;SDS_P1;SDS_P2;PMS_P1;PMS_P2;Temp;Humidity;BMP_temperature;BMP_pressure;BME280_temperature;BME280_humidity;BME280_pressure;Samples;Min_cycle;Max_cycle;Signal;HPM_P1;HPM_P2
2023/03/26 00:01:25;;;;;;;23.58;3.90;;;;;;;;;;5117532;27;20055;-71
2023/03/26 00:03:52;;;;;;;26.30;3.97;;;;;;;;;;5117432;27;20050;-71
2023/03/26 00:06:21;;;;;;;24.95;3.03;;;;;;;;;;5116940;27;20072;-71
2023/03/26 00:08:47;;;;;;;26.95;4.22;;;;;;;;;;5151748;27;20035;-71
2023/03/26 00:11:14;;;;;;;28.90;3.13;;;;;;;;;;5117322;27;20035;-71
2023/03/26 00:13:42;;;;;;;21.88;3.13;;;;;;;;;;5117534;27;20096;-71
2023/03/26 00:16:09;;;;;;;30.23;3.97;;;;;;;;;;5116753;27;20074;-71
2023/03/26 00:18:36;;;;;;;29.40;3.72;;;;;;;;;;5151423;27;20556;-71
2023/03/26 00:21:04;;;;;;;22.35;3.45;;;;;;;;;;5116561;27;20047;-71
2023/03/26 00:23:31;;;;;;;20.13;3.05;;;;;;;;;;5116992;27;20043;-71
2023/03/26 00:25:57;;;;;;;23.08;3.53;;;;;;;;;;5116525;27;20084;-71
2023/03/26 00:28:25;;;;;;;22.55;3.28;;;;;;;;;;5134330;27;20080;-71
2023/03/26 00:30:57;;;;;;;17.23;3.25;;;;;;;;;;5116583;27;20049;-71
2023/03/26 00:33:23;;;;;;;18.38;3.60;;;;;;;;;;5116649;27;20043;-71
2023/03/26 00:35:53;;;;;;;22.45;3.70;;;;;;;;;;5116876;27;20479;-71
2023/03/26 00:38:21;;;;;;;26.90;3.92;;;;;;;;;;5116180;27;20486;-71
2023/03/26 00:40:49;;;;;;;24.83;3.78;;;;;;;;;;5116767;27;20050;-71
2023/03/26 00:43:19;;;;;;;36.05;4.20;;;;;;;;;;5116394;27;20085;-71
2023/03/26 00:45:54;;;;;;;23.38;3.33;;;;;;;;;;5116848;27;20383;-71
2023/03/26 00:48:21;;;;;;;21.42;3.20;;;;;;;;;;5099774;27;20061;-71
2023/03/26 00:50:48;;;;;;;22.70;3.75;;;;;;;;;;5116931;27;20139;-71
2023/03/26 00:53:15;;;;;;;28.42;4.47;;;;;;;;;;5116447;27;20039;-71
2023/03/26 00:55:41;;;;;;;24.13;4.00;;;;;;;;;;5116535;27;20498;-71
2023/03/26 00:58:11;;;;;;;22.95;3.30;;;;;;;;;;5116430;27;20027;-71
2023/03/26 01:00:41;;;;;;;33.25;3.83;;;;;;;;;;5100187;27;20439;-71
2023/03/26 01:03:12;;;;;;;30.85;4.97;;;;;;;;;;5115662;27;20551;-71
2023/03/26 01:05:41;;;;;;;27.55;3.70;;;;;;;;;;5099265;27;20475;-71
2023/03/26 01:08:21;;;;;;;23.95;3.20;;;;;;;;;;5115910;27;20069;-71
2023/03/26 01:10:49;;;;;;;28.42;3.63;;;;;;;;;;5115980;27;20037;-71
2023/03/26 01:13:17;;;;;;;28.02;4.30;;;;;;;;;;5115968;27;20045;-71
2023/03/26 01:15:48;;;;;;;33.92;4.13;;;;;;;;;;5098833;27;20064;-71
2023/03/26 01:18:15;;;;;;;28.23;4.22;;;;;;;;;;5115818;27;20108;-71
2023/03/26 01:20:45;;;;;;;19.60;3.47;;;;;;;;;;5115993;27;20042;-71
2023/03/26 01:23:12;;;;;;;27.70;3.67;;;;;;;;;;5115853;27;20039;-71
2023/03/26 01:25:44;;;;;;;20.92;3.78;;;;;;;;;;5115931;28;20069;-71
2023/03/26 01:28:11;;;;;;;26.92;3.88;;;;;;;;;;5116000;28;20035;-71
2023/03/26 01:30:50;;;;;;;24.60;4.80;;;;;;;;;;5115814;27;20070;-71
2023/03/26 01:33:29;;;;;;;26.92;3.75;;;;;;;;;;5115340;27;20504;-71
2023/03/26 01:36:15;;;;;;;23.70;3.70;;;;;;;;;;5116020;27;20431;-71
2023/03/26 01:38:47;;;;;;;24.17;3.45;;;;;;;;;;5115117;28;20042;-71
2023/03/26 01:41:42;;;;;;;30.38;3.38;;;7.60;99.90;;;;;;5116096;27;20088;-71
2023/03/26 01:44:20;;;;;;;19.50;2.97;;;;;;;;;;5098432;28;20043;-71
2023/03/26 01:46:47;;;;;;;33.40;4.25;;;;;;;;;;5116053;28;20103;-71
2023/03/26 01:49:13;;;;;;;23.75;3.88;;;;;;;;;;5115754;28;20035;-71
2023/03/26 01:51:40;;;;;;;35.15;4.32;;;;;;;;;;5115771;28;20064;-72
2023/03/26 01:54:08;;;;;;;33.10;4.75;;;;;;;;;;5115573;28;20078;-71
2023/03/26 01:56:34;;;;;;;33.45;5.63;;;;;;;;;;5115608;28;20513;-71
2023/03/26 01:59:03;;;;;;;29.02;4.15;;;;;;;;;;5115492;28;20053;-71
2023/03/26 02:01:35;;;;;;;24.02;3.58;;;;;;;;;;5115709;28;20082;-71
2023/03/26 02:04:16;;;;;;;20.20;4.32;;;;;;;;;;5115479;28;20137;-71
2023/03/26 02:06:48;;;;;;;34.03;5.25;;;;;;;;;;5115628;28;20042;-71
2023/03/26 02:09:17;;;;;;;24.15;3.78;;;;;;;;;;5115024;28;20031;-71
2023/03/26 02:11:44;;;;;;;28.00;4.55;;;;;;;;;;5115231;28;20027;-71
2023/03/26 02:14:13;;;;;;;38.20;4.22;;;;;;;;;;5115554;28;20396;-71
2023/03/26 02:16:39;;;;;;;20.92;5.07;;;;;;;;;;5115445;28;20539;-71
2023/03/26 02:19:08;;;;;;;17.10;3.08;;;;;;;;;;5115286;28;20395;-71
2023/03/26 02:21:34;;;;;;;29.08;3.90;;;;;;;;;;5098281;27;20130;-73
2023/03/26 02:24:04;;;;;;;28.45;3.85;;;;;;;;;;5081222;28;20050;-71
2023/03/26 02:26:31;;;;;;;22.73;2.72;;;;;;;;;;5115642;28;20035;-71
2023/03/26 02:28:57;;;;;;;26.13;4.43;;;;;;;;;;5115598;28;20031;-71
2023/03/26 02:31:25;;;;;;;25.48;3.58;;;;;;;;;;5098675;28;20039;-71
2023/03/26 02:33:51;;;;;;;20.13;3.60;;;;;;;;;;5115423;28;20112;-71
2023/03/26 02:36:20;;;;;;;20.10;2.92;;;;;;;;;;5115361;27;20387;-71
2023/03/26 02:38:46;;;;;;;17.27;2.90;;;;;;;;;;5114753;28;20039;-71
2023/03/26 02:41:12;;;;;;;18.15;3.30;;;;;;;;;;5114932;28;20084;-71
2023/03/26 02:43:39;;;;;;;28.38;3.75;;;;;;;;;;5115490;28;20047;-71
2023/03/26 02:46:05;;;;;;;22.98;3.13;;;;;;;;;;5114868;28;20046;-71
2023/03/26 02:48:33;;;;;;;12.30;2.67;;;;;;;;;;5115050;28;20133;-71
2023/03/26 02:50:59;;;;;;;28.10;2.85;;;;;;;;;;5115173;28;20035;-71
2023/03/26 02:53:28;;;;;;;14.68;2.88;;;;;;;;;;5115354;27;20043;-71
2023/03/26 02:55:55;;;;;;;23.25;2.53;;;;;;;;;;5135813;27;20046;-72
2023/03/26 02:58:24;;;;;;;23.15;3.10;;;;;;;;;;5118580;27;20035;-71
2023/03/26 03:00:53;;;;;;;19.70;3.20;;;;;;;;;;5118794;27;20050;-71
2023/03/26 03:03:23;;;;;;;14.20;2.85;;;;;;;;;;5118340;27;20119;-71
2023/03/26 03:05:53;;;;;;;21.65;3.20;;;;;;;;;;5118205;27;20031;-71
2023/03/26 03:08:20;;;;;;;22.50;3.53;;;;;;;;;;5118397;27;20039;-71
2023/03/26 03:10:57;;;;;;;17.48;3.30;;;;;;;;;;5118015;27;20035;-71
2023/03/26 03:13:23;;;;;;;17.20;3.22;;;;;;;;;;5118141;27;20130;-71
2023/03/26 03:15:49;;;;;;;13.95;2.35;;;;;;;;;;5118202;27;20043;-71
2023/03/26 03:18:15;;;;;;;20.40;3.22;;;;;;;;;;5118164;27;20513;-71
2023/03/26 03:20:42;;;;;;;15.88;2.75;;;;;;;;;;5117926;27;20100;-71
2023/03/26 03:23:08;;;;;;;18.08;2.70;;;;;;;;;;5118082;27;20035;-71
2023/03/26 03:25:34;;;;;;;15.88;3.10;;;;;;;;;;5118005;27;20486;-71
2023/03/26 03:28:01;;;;;;;15.10;2.60;;;;;;;;;;5118535;27;20035;-73
2023/03/26 03:30:27;;;;;;;23.67;3.30;;;;;;;;;;5100854;27;20487;-73
2023/03/26 03:32:53;;;;;;;17.55;2.78;;;;;;;;;;5118093;27;20042;-73
2023/03/26 03:35:19;;;;;;;16.75;2.97;;;;;;;;;;5118121;27;20047;-73
2023/03/26 03:37:45;;;;;;;20.67;3.53;;;;;;;;;;5118242;27;20080;-73
2023/03/26 03:40:12;;;;;;;15.60;2.75;;;;;;;;;;5117945;27;20050;-73
2023/03/26 03:42:38;;;;;;;16.52;2.70;;;;;;;;;;5117914;27;20045;-73
2023/03/26 03:45:05;;;;;;;19.73;4.38;;;;;;;;;;5134941;27;20430;-73
2023/03/26 03:47:31;;;;;;;12.18;2.60;;;;;;;;;;5117972;27;20043;-73
2023/03/26 03:49:59;;;;;;;19.30;3.30;;;;;;;;;;5118047;27;20031;-73
2023/03/26 03:52:26;;;;;;;24.90;3.22;;;;;;;;;;5117510;27;20494;-73
2023/03/26 03:54:52;;;;;;;24.25;3.03;;;;;;;;;;5117748;27;20043;-74
2023/03/26 03:57:20;;;;;;;22.50;3.45;;;;;;;;;;5117614;27;20099;-74
2023/03/26 03:59:47;;;;;;;16.05;2.58;;;;;;;;;;5117749;27;20129;-74
2023/03/26 04:02:13;;;;;;;15.10;2.67;;;;;;;;;;5120504;27;20039;-74
2023/03/26 04:04:39;;;;;;;21.48;4.90;;;;;;;;;;5097012;28;20082;-74
2023/03/26 04:07:05;;;;;;;19.48;3.08;;;;;;;;;;5125616;27;20103;-74
2023/03/26 04:09:31;;;;;;;29.60;3.13;;;;;;;;;;5117479;27;20034;-74
2023/03/26 04:11:57;;;;;;;27.15;3.50;;;;;;;;;;5117115;27;20027;-74
2023/03/26 04:14:23;;;;;;;21.77;4.13;;;;;;;;;;5134474;27;20039;-74
2023/03/26 04:16:50;;;;;;;20.60;4.05;;;;;;;;;;5100254;27;20084;-74
2023/03/26 04:19:16;;;;;;;25.10;3.15;;;;;;;;;;5100325;27;20055;-74
2023/03/26 04:21:42;;;;;;;22.83;2.92;;;;;;;;;;5116796;27;20046;-74
2023/03/26 04:24:09;;;;;;;27.67;4.47;;;;;;;;;;5134352;27;20390;-74
2023/03/26 04:26:35;;;;;;;27.42;4.55;;;;;;;;;;5116804;27;20031;-74
2023/03/26 04:29:04;;;;;;;21.02;3.45;;;;;;;;;;5116997;27;20390;-74
2023/03/26 04:31:30;;;;;;;23.17;3.60;;;;;;;;;;5129380;27;20084;-74
2023/03/26 04:34:00;;;;;;;32.25;3.90;;;;;;;;;;5116955;27;20043;-74
2023/03/26 04:36:27;;;;;;;19.98;2.70;;;;;;;;;;5117111;27;20055;-74
2023/03/26 04:38:54;;;;;;;18.80;3.25;;;;;;;;;;5116613;27;20042;-74
2023/03/26 04:41:27;;;;;;;23.48;3.55;;;;;;;;;;5116846;27;20070;-74
2023/03/26 04:43:54;;;;;;;17.17;2.97;;;;;;;;;;5116206;27;20046;-74
2023/03/26 04:46:21;;;;;;;18.98;3.55;;;;;;;;;;5116685;27;20031;-74
2023/03/26 04:48:54;;;;;;;21.27;3.75;;;;;;;;;;5116454;27;20087;-74
2023/03/26 04:51:21;;;;;;;27.88;3.00;;;;;;;;;;5116500;27;20083;-74
2023/03/26 04:53:51;;;;;;;17.88;3.33;;;;;;;;;;5116361;27;20099;-74
2023/03/26 04:56:39;;;;;;;20.33;3.90;;;;;;;;;;5116324;27;20043;-74
2023/03/26 04:59:06;;;;;;;22.25;3.83;;;;;;;;;;5116731;27;20093;-74
2023/03/26 05:01:36;;;;;;;17.45;2.75;;;;;;;;;;5100478;27;20039;-74
2023/03/26 05:04:02;;;;;;;18.55;3.88;;;;;;;;;;5116342;27;20049;-74
2023/03/26 05:06:29;;;;;;;19.45;3.25;;;;;;;;;;5116105;27;20107;-74
2023/03/26 05:08:55;;;;;;;21.92;3.58;;;;;;;;;;5099584;27;20395;-74
2023/03/26 05:11:21;;;;;;;12.60;2.70;;;;;;;;;;5116243;27;20039;-75
2023/03/26 05:13:47;;;;;;;23.77;3.13;;;;;;;;;;5116156;27;20071;-75
2023/03/26 05:16:13;;;;;;;19.30;3.65;;;;;;;;;;5115984;27;20039;-74
2023/03/26 05:18:39;;;;;;;23.02;3.83;;;;;;;;;;5098442;27;20414;-74
2023/03/26 05:21:05;;;;;;;15.98;3.60;;;;;;;;;;5082232;27;20124;-74
2023/03/26 05:23:32;;;;;;;25.10;4.05;;;;;;;;;;5098812;27;20364;-75
2023/03/26 05:25:58;;;;;;;27.80;3.08;;;;;;;;;;5116209;27;20035;-74
2023/03/26 05:28:25;;;;;;;26.27;3.30;;;;;;;;;;5098925;27;20043;-73
2023/03/26 05:30:52;;;;;;;13.55;2.60;;;;;;;;;;5115231;27;20046;-74
2023/03/26 05:33:19;;;;;;;25.98;3.78;;;;;;;;;;5115814;28;20084;-74
2023/03/26 05:35:45;;;;;;;17.27;3.20;;;;;;;;;;5115854;28;20078;-74
2023/03/26 05:38:11;;;;;;;35.83;4.13;;;;;;;;;;5115928;27;20391;-74
2023/03/26 05:40:37;;;;;;;19.30;3.25;;;;;;;;;;5115962;27;20032;-74
2023/03/26 05:43:03;;;;;;;19.95;3.60;;;;;;;;;;5115407;27;20042;-74
2023/03/26 05:45:30;;;;;;;21.17;3.60;;;;;;;;;;5115481;28;20147;-74
2023/03/26 05:47:56;;;;;;;28.02;3.90;;;;;;;;;;5115434;28;20095;-74
2023/03/26 05:50:22;;;;;;;21.10;4.03;;;;;;;;;;5115792;28;20390;-74
2023/03/26 05:52:48;;;;;;;20.45;4.72;;;;;;;;;;5115477;28;20031;-74
2023/03/26 05:55:14;;;;;;;20.80;3.25;;;;;;;;;;5115739;28;20045;-73
2023/03/26 05:57:41;;;;;;;18.60;3.00;;;;;;;;;;5115596;28;20043;-74
2023/03/26 06:00:09;;;;;;;18.98;3.03;;;;;;;;;;5115465;28;20039;-73
2023/03/26 06:02:35;;;;;;;14.65;3.25;;;;;;;;;;5115692;27;20082;-73
2023/03/26 06:05:01;;;;;;;15.27;3.97;;;;;;;;;;5115445;28;20065;-74
2023/03/26 06:07:28;;;;;;;20.42;3.95;;;;;;;;;;5132572;28;20035;-74
2023/03/26 06:09:54;;;;;;;21.45;3.72;;;;;;;;;;5115204;28;20035;-74
2023/03/26 06:12:20;;;;;;;21.35;3.05;;;;;;;;;;5115364;28;20088;-74
2023/03/26 06:14:47;;;;;;;22.38;3.75;;;;;;;;;;5115422;28;20050;-74
2023/03/26 06:17:13;;;;;;;22.80;3.80;;;;;;;;;;5099074;27;20111;-74
2023/03/26 06:19:39;;;;;;;18.77;3.72;;;;;;;;;;5097817;28;20055;-74
2023/03/26 06:22:05;;;;;;;21.08;3.13;;;;;;;;;;5115281;28;20080;-71
2023/03/26 06:24:32;;;;;;;22.17;3.10;;;;;;;;;;5115208;28;20081;-71
2023/03/26 06:26:58;;;;;;;20.60;3.10;;;;;;;;;;5115540;28;20042;-71
2023/03/26 06:29:24;;;;;;;21.77;3.15;;;;;;;;;;5116355;27;20099;-71
2023/03/26 06:31:50;;;;;;;19.05;3.08;;;;;;;;;;5119307;27;20144;-71
2023/03/26 06:34:16;;;;;;;19.65;2.90;;;;;;;;;;5119125;27;20039;-71
2023/03/26 06:36:42;;;;;;;22.70;2.72;;;;;;;;;;5119072;27;20087;-71
2023/03/26 06:39:08;;;;;;;17.08;2.90;;;;;;;;;;5101881;27;20039;-71
2023/03/26 06:41:34;;;;;;;27.02;3.50;;;;;;;;;;5119329;27;20038;-71
2023/03/26 06:44:01;;;;;;;23.75;3.20;;;;;;;;;;5118832;27;20039;-71
2023/03/26 06:46:27;;;;;;;25.20;3.33;;;;;;;;;;5118944;27;20041;-71
2023/03/26 06:48:53;;;;;;;27.08;3.60;;;;;;;;;;5118590;27;20039;-71
2023/03/26 06:51:19;;;;;;;23.23;3.40;;;;;;;;;;5118955;27;20035;-71
2023/03/26 06:53:45;;;;;;;19.55;2.95;;;;;;;;;;5118788;27;20035;-71
2023/03/26 06:56:11;;;;;;;31.48;3.75;;;;;;;;;;5118832;27;20039;-71
2023/03/26 06:58:37;;;;;;;23.10;3.70;;;;;;;;;;5118692;27;20039;-71
2023/03/26 07:01:03;;;;;;;21.35;2.88;;;;;;;;;;5118418;27;20072;-72
2023/03/26 07:03:29;;;;;;;16.92;2.40;;;;;;;;;;5101489;27;20494;-71
2023/03/26 07:05:55;;;;;;;20.45;3.78;;;;;;;;;;5118656;27;20129;-72
2023/03/26 07:08:21;;;;;;;15.45;2.80;;;;;;;;;;5101351;27;20091;-72
2023/03/26 07:10:48;;;;;;;21.90;3.15;;;;;;;;;;5118271;27;20039;-71
2023/03/26 07:13:15;;;;;;;15.60;2.50;;;;;;;;;;5118492;27;20092;-75
2023/03/26 07:15:41;;;;;;;12.52;2.70;;;;;;;;;;5118376;27;20435;-75
2023/03/26 07:18:07;;;;;;;13.77;2.75;;;;;;;;;;5101035;27;20126;-71
2023/03/26 07:20:33;;;;;;;14.90;2.40;;;;;;;;;;5101322;27;20063;-71
2023/03/26 07:22:59;;;;;;;19.55;2.53;;;;;;;;;;5118430;27;20093;-71
2023/03/26 07:25:26;;;;;;;20.42;2.97;;;;;;;;;;5117616;27;20039;-73
2023/03/26 07:28:11;;;;;;;31.75;3.95;;;6.90;99.90;;;;;;5101250;27;20479;-78
2023/03/26 07:30:37;;;;;;;19.48;3.35;;;;;;;;;;5100927;27;20045;-71
2023/03/26 07:33:13;;;;;;;11.77;3.05;;;;;;;;;;5117881;27;20074;-73
2023/03/26 07:35:43;;;;;;;22.73;3.38;;;;;;;;;;5118152;27;20050;-74
2023/03/26 07:38:22;;;;;;;16.45;2.55;;;;;;;;;;5117721;27;20053;-73
2023/03/26 07:41:07;;;;;;;18.63;3.08;;;;;;;;;;5117714;27;20092;-73
2023/03/26 07:43:59;;;;;;;18.25;2.70;;;;;;;;;;5100681;27;20054;-74
2023/03/26 07:46:28;;;;;;;17.92;2.40;;;;;;;;;;5087912;27;20039;-74
2023/03/26 07:48:57;;;;;;;17.33;2.63;;;;;;;;;;5116937;27;20057;-74
2023/03/26 07:51:23;;;;;;;17.85;3.90;;;;;;;;;;5143956;27;20039;-74
2023/03/26 07:53:49;;;;;;;25.90;3.05;;;;;;;;;;5117811;27;20039;-74
2023/03/26 07:56:17;;;;;;;20.85;2.95;;;;;;;;;;5122052;27;20403;-74
2023/03/26 07:59:02;;;;;;;18.85;2.90;;;;;;;;;;5134767;27;20034;-73
2023/03/26 08:01:40;;;;;;;16.13;2.83;;;;;;;;;;5132447;27;20089;-73
2023/03/26 08:04:26;;;;;;;20.17;3.03;;;;;;;;;;5117413;27;20095;-74
2023/03/26 08:06:59;;;;;;;19.88;3.75;;;;;;;;;;5117473;27;20077;-74
2023/03/26 08:09:32;;;;;;;17.83;3.17;;;;;;;;;;5117356;27;20039;-74
2023/03/26 08:11:58;;;;;;;18.40;3.10;;;;;;;;;;5116972;27;20035;-74
2023/03/26 08:14:47;;;;;;;14.63;2.92;;;7.30;99.90;;;;;;5116903;27;20035;-74
2023/03/26 08:17:16;;;;;;;14.68;3.42;;;;;;;;;;5117357;27;20043;-74
2023/03/26 08:19:42;;;;;;;20.23;2.83;;;;;;;;;;5117036;27;20062;-74
2023/03/26 08:22:15;;;;;;;18.05;2.60;;;;;;;;;;5116772;27;20039;-73
2023/03/26 08:25:01;;;;;;;14.05;2.83;;;;;;;;;;5117008;27;20075;-74
2023/03/26 08:27:43;;;;;;;18.67;2.45;;;;;;;;;;5117272;27;20040;-74
2023/03/26 08:30:26;;;;;;;24.85;2.70;;;;;;;;;;5117402;27;20516;-73
2023/03/26 08:33:12;;;;;;;19.58;2.72;;;;;;;;;;5133903;27;20050;-74
2023/03/26 08:35:41;;;;;;;17.20;3.42;;;;;;;;;;5116693;27;20035;-74
2023/03/26 08:38:18;;;;;;;16.42;2.60;;;;;;;;;;5117046;27;20043;-74
2023/03/26 08:41:03;;;;;;;16.17;2.63;;;;;;;;;;5133952;27;20391;-74
2023/03/26 08:43:48;;;;;;;15.90;2.63;;;;;;;;;;5119215;27;20049;-72
2023/03/26 08:46:14;;;;;;;16.70;2.60;;;;;;;;;;5134387;27;20542;-72
2023/03/26 08:49:00;;;;;;;16.67;2.63;;;;;;;;;;5116846;27;20039;-73
2023/03/26 08:51:36;;;;;;;18.40;3.17;;;;;;;;;;5098718;27;20055;-74
2023/03/26 08:54:08;;;;;;;12.30;2.78;;;;;;;;;;5114040;27;20180;-74
2023/03/26 08:56:53;;;;;;;25.38;3.15;;;;;;;;;;5116403;27;20039;-74
2023/03/26 08:59:38;;;;;;;17.70;2.58;;;;;;;;;;5116496;27;20050;-74
2023/03/26 09:02:19;;;;;;;25.17;2.83;;;;;;;;;;5116067;27;20091;-74
2023/03/26 09:04:51;;;;;;;10.13;2.45;;;;;;;;;;5116253;27;20372;-74
2023/03/26 09:07:29;;;;;;;13.18;2.58;;;;;;;;;;5116135;27;20039;-74
2023/03/26 09:10:02;;;;;;;12.93;2.70;;;;;;;;;;5115303;27;20091;-74
2023/03/26 09:12:46;;;;;;;16.73;3.50;;;;;;;;;;5116029;27;20043;-73
2023/03/26 09:15:31;;;;;;;21.10;2.67;;;;;;;;;;5116076;27;20582;-74
2023/03/26 09:18:16;;;;;;;15.70;3.00;;;;;;;;;;5115966;27;20075;-74
2023/03/26 09:20:54;;;;;;;17.80;3.05;;;;;;;;;;5115977;27;20053;-74
2023/03/26 09:23:30;;;;;;;11.25;2.72;;;;;;;;;;5115810;27;20035;-74
2023/03/26 09:26:02;;;;;;;13.52;2.83;;;;;;;;;;5116098;27;20051;-74
2023/03/26 09:28:34;;;;;;;19.38;2.60;;;;;;;;;;5116027;27;20031;-74
2023/03/26 09:31:09;;;;;;;22.45;2.95;;;;;;;;;;5116051;27;20088;-74
2023/03/26 09:33:47;;;;;;;17.42;2.55;;;;;;;;;;5098770;27;20028;-74
2023/03/26 09:36:13;;;;;;;15.02;2.85;;;;;;;;;;5116157;28;20046;-74
2023/03/26 09:38:42;;;;;;;15.50;2.88;;;;;;;;;;5115772;27;20039;-74
2023/03/26 09:41:18;;;;;;;13.13;2.67;;;;;;;;;;5095389;28;20122;-74
2023/03/26 09:43:53;;;;;;;15.70;2.70;;;;;;;;;;5112398;28;20092;-74
2023/03/26 09:46:19;;;;;;;23.40;2.42;;;;;;;;;;5115480;28;20066;-74
2023/03/26 09:48:46;;;;;;;28.80;4.72;;;;;;;;;;5132652;28;20375;-74
2023/03/26 09:51:41;;;;;;;15.98;2.95;;;;;;;;;;5115237;28;20538;-74
2023/03/26 09:54:19;;;;;;;16.42;3.22;;;;;;;;;;5044323;28;20053;-74
2023/03/26 09:57:12;;;;;;;13.95;3.00;;;;;;;;;;5115117;28;20047;-74
2023/03/26 09:59:49;;;;;;;15.52;2.70;;;;;;;;;;5077853;28;20051;-74
2023/03/26 10:02:24;;;;;;;15.02;2.35;;;;;;;;;;5115557;28;20421;-73
2023/03/26 10:05:10;;;;;;;18.23;4.30;;;;;;;;;;5101466;27;20043;-74
2023/03/26 10:08:09;;;;;;;19.20;3.35;;;;;;;;;;5130114;27;20084;-74
2023/03/26 10:10:38;;;;;;;12.48;3.13;;;;;;;;;;5075749;28;20051;-74
2023/03/26 10:13:10;;;;;;;14.50;2.72;;;;;;;;;;5114611;27;20038;-74
2023/03/26 10:15:48;;;;;;;13.23;2.40;;;;;;;;;;5136682;27;20404;-75
2023/03/26 10:18:32;;;;;;;18.50;3.45;;;8.30;99.90;;;;;;5119139;27;20141;-74
2023/03/26 10:21:05;;;;;;;15.27;2.83;;;8.20;99.90;;;;;;5119131;27;20047;-74
2023/03/26 10:24:08;;;;;;;16.05;3.13;;;8.30;99.90;;;;;;5119191;27;20464;-75
2023/03/26 10:26:35;;;;;;;16.63;3.67;;;;;;;;;;5119238;27;20077;-74
2023/03/26 10:29:16;;;;;;;29.10;4.85;;;;;;;;;;5118706;27;20096;-74
2023/03/26 10:31:47;;;;;;;13.50;2.72;;;;;;;;;;5119612;27;20027;-74
2023/03/26 10:34:21;;;;;;;20.77;2.55;;;8.50;99.90;;;;;;5119304;27;20051;-74
2023/03/26 10:36:47;;;;;;;12.70;2.47;;;;;;;;;;5119148;27;20031;-74
2023/03/26 10:39:35;;;;;;;10.38;1.90;;;8.30;99.90;;;;;;5119022;27;20114;-74
2023/03/26 10:42:39;;;;;;;20.13;2.55;;;8.20;99.90;;;;;;5102303;27;20504;-74
2023/03/26 10:45:06;;;;;;;9.55;2.53;;;;;;;;;;5118593;27;20123;-74
2023/03/26 10:47:35;;;;;;;16.92;2.30;;;;;;;;;;5119155;27;20047;-74
2023/03/26 10:50:17;;;;;;;15.15;2.70;;;;;;;;;;5118688;27;20035;-74
2023/03/26 10:52:54;;;;;;;12.63;2.92;;;;;;;;;;5135784;27;20031;-74
2023/03/26 10:55:26;;;;;;;12.70;2.10;;;;;;;;;;5098577;28;20048;-74
2023/03/26 10:57:53;;;;;;;15.93;2.63;;;;;;;;;;5098664;27;20088;-74
2023/03/26 11:00:24;;;;;;;11.95;3.58;;;;;;;;;;5081878;28;20458;-74
2023/03/26 11:03:16;;;;;;;15.10;2.78;;;;;;;;;;5101939;27;20042;-73
2023/03/26 11:05:54;;;;;;;12.50;2.25;;;;;;;;;;5118499;27;20107;-73
2023/03/26 11:08:28;;;;;;;16.98;2.45;;;;;;;;;;5118466;27;20033;-73
2023/03/26 11:10:55;;;;;;;11.35;2.35;;;;;;;;;;5118707;27;20236;-74
2023/03/26 11:13:21;;;;;;;12.75;2.53;;;;;;;;;;5118275;27;20043;-73
2023/03/26 11:15:53;;;;;;;12.52;1.73;;;;;;;;;;5117397;27;20039;-73
2023/03/26 11:18:25;;;;;;;16.92;2.63;;;;;;;;;;5118225;27;20135;-73
2023/03/26 11:21:03;;;;;;;12.73;2.22;;;;;;;;;;5118181;27;20051;-73
2023/03/26 11:23:34;;;;;;;18.42;2.70;;;;;;;;;;5100956;27;20031;-73
2023/03/26 11:26:19;;;;;;;15.45;1.90;;;;;;;;;;5118266;27;20092;-73
2023/03/26 11:29:06;;;;;;;12.23;2.38;;;;;;;;;;5118258;27;20368;-73
2023/03/26 11:31:40;;;;;;;8.65;2.13;;;;;;;;;;5117947;27;20483;-73
2023/03/26 11:34:11;;;;;;;9.85;2.13;;;;;;;;;;5117502;27;20050;-73
2023/03/26 11:36:39;;;;;;;18.15;3.20;;;;;;;;;;5117947;27;20043;-74
2023/03/26 11:39:08;;;;;;;9.77;2.17;;;;;;;;;;5117607;27;20043;-74
2023/03/26 11:41:35;;;;;;;14.95;2.80;;;;;;;;;;5101036;27;20050;-74
2023/03/26 11:44:22;;;;;;;10.32;2.53;;;;;;;;;;5100447;27;20064;-74
2023/03/26 11:46:49;;;;;;;11.10;2.58;;;;;;;;;;5117912;27;20478;-73
2023/03/26 11:49:17;;;;;;;12.65;2.70;;;;;;;;;;5117682;27;20039;-74
2023/03/26 11:51:46;;;;;;;16.63;2.53;;;;;;;;;;5100971;27;20038;-73
2023/03/26 11:54:12;;;;;;;14.60;2.63;;;;;;;;;;5099946;27;20395;-73
2023/03/26 11:56:52;;;;;;;14.20;2.88;;;;;;;;;;5117523;27;20495;-73
2023/03/26 11:59:31;;;;;;;11.77;3.08;;;;;;;;;;5129762;27;20058;-73
2023/03/26 12:02:16;;;;;;;8.23;2.13;;;;;;;;;;5097055;28;20540;-73
2023/03/26 12:04:44;;;;;;;14.30;2.03;;;;;;;;;;5109593;27;20436;-73
2023/03/26 12:07:36;;;;;;;16.63;3.15;;;;;;;;;;5117451;27;20122;-73
2023/03/26 12:10:04;;;;;;;22.88;2.83;;;;;;;;;;5112741;27;20058;-73
2023/03/26 12:12:31;;;;;;;13.10;2.10;;;;;;;;;;5117118;27;20039;-73
2023/03/26 12:14:58;;;;;;;14.73;2.05;;;;;;;;;;5116776;27;20493;-73
2023/03/26 12:17:25;;;;;;;10.55;2.50;;;;;;;;;;5134712;27;20039;-74
2023/03/26 12:19:52;;;;;;;8.95;1.75;;;;;;;;;;5096517;28;20051;-73
2023/03/26 12:22:40;;;;;;;10.88;2.08;;;;;;;;;;5093277;28;20101;-73
2023/03/26 12:25:20;;;;;;;16.38;2.22;;;;;;;;;;5093034;28;20044;-73
2023/03/26 12:27:51;;;;;;;13.98;2.50;;;;;;;;;;5092129;28;20085;-73
2023/03/26 12:30:24;;;;;;;15.57;2.28;;;;;;;;;;5093039;28;20047;-73
2023/03/26 12:32:52;;;;;;;11.63;2.42;;;;;;;;;;5076505;28;20480;-74
2023/03/26 12:35:24;;;;;;;13.85;3.28;;;;;;;;;;5092917;28;20047;-73
2023/03/26 12:37:50;;;;;;;10.77;2.03;;;;;;;;;;5093005;28;20069;-74
2023/03/26 12:40:35;;;;;;;9.95;2.22;;;;;;;;;;5092608;28;20044;-73
2023/03/26 12:43:20;;;;;;;16.02;2.13;;;;;;;;;;5093284;28;20043;-73
2023/03/26 12:45:49;;;;;;;16.42;2.72;;;;;;;;;;5091198;28;20404;-73
2023/03/26 12:48:16;;;;;;;10.88;2.00;;;;;;;;;;5075995;28;20089;-73
2023/03/26 12:51:03;;;;;;;13.65;2.95;;;;;;;;;;5075509;28;20444;-73
2023/03/26 12:53:48;;;;;;;10.32;2.03;;;;;;;;;;5092852;28;20495;-73
2023/03/26 12:56:26;;;;;;;20.30;2.78;;;;;;;;;;5079982;28;20044;-74
2023/03/26 12:58:55;;;;;;;11.73;2.25;;;;;;;;;;5089496;28;20055;-72
2023/03/26 13:01:31;;;;;;;8.07;1.67;;;;;;;;;;5102212;28;20408;-72
2023/03/26 13:04:04;;;;;;;8.88;1.80;;;;;;;;;;5092784;28;20102;-73
2023/03/26 13:06:52;;;;;;;13.38;1.83;;;;;;;;;;5092213;28;20544;-72
2023/03/26 13:09:22;;;;;;;15.35;3.35;;;;;;;;;;5092499;28;20052;-72
2023/03/26 13:11:51;;;;;;;7.25;1.77;;;;;;;;;;5075407;28;20574;-75
2023/03/26 13:14:25;;;;;;;9.15;2.08;;;;;;;;;;5075706;28;20043;-72
2023/03/26 13:16:58;;;;;;;14.93;2.03;;;;;;;;;;5092468;28;20040;-72
2023/03/26 13:19:33;;;;;;;9.65;1.95;;;;;;;;;;5092043;28;20114;-72
2023/03/26 13:22:05;;;;;;;8.77;2.08;;;;;;;;;;5091718;28;20052;-72
2023/03/26 13:24:38;;;;;;;8.25;1.80;;;;;;;;;;5092254;28;20032;-72
2023/03/26 13:27:07;;;;;;;9.68;1.85;;;;;;;;;;5091338;28;20036;-72
2023/03/26 13:29:40;;;;;;;6.35;1.73;;;;;;;;;;5092271;28;20051;-72
2023/03/26 13:32:12;;;;;;;9.93;2.15;;;;;;;;;;5092158;28;20040;-71
2023/03/26 13:34:46;;;;;;;13.88;1.95;;;;;;;;;;5092201;28;20388;-71
2023/03/26 13:37:45;;;;;;;18.02;2.33;;;;;;;;;;5091815;28;20046;-72
2023/03/26 13:40:14;;;;;;;13.88;1.92;;;;;;;;;;5059161;28;20461;-74
2023/03/26 13:42:43;;;;;;;12.90;2.03;;;;;;;;;;5091783;28;20039;-73
2023/03/26 13:45:09;;;;;;;14.27;2.38;;;;;;;;;;5075258;28;20094;-74
2023/03/26 13:47:37;;;;;;;12.70;2.13;;;;;;;;;;5075422;28;20044;-74
2023/03/26 13:50:14;;;;;;;12.90;3.25;;;;;;;;;;5091049;28;20047;-73
2023/03/26 13:52:45;;;;;;;14.68;1.90;;;;;;;;;;5091363;28;20036;-74
2023/03/26 13:55:14;;;;;;;18.90;2.42;;;;;;;;;;5091932;28;20040;-73
2023/03/26 13:57:48;;;;;;;10.27;2.00;;;;;;;;;;5091741;28;20476;-73
2023/03/26 14:00:17;;;;;;;13.48;2.13;;;;;;;;;;5091605;28;20043;-73
2023/03/26 14:02:44;;;;;;;14.57;2.08;;;;;;;;;;5091861;28;20083;-74
2023/03/26 14:05:19;;;;;;;12.23;2.53;;;;;;;;;;5105739;28;20438;-74
2023/03/26 14:07:56;;;;;;;11.25;2.03;;;;;;;;;;5108457;28;20040;-71
2023/03/26 14:10:27;;;;;;;10.73;2.60;;;;;;;;;;5091819;28;20040;-71
2023/03/26 14:12:56;;;;;;;13.43;2.23;;;;;;;;;;5091748;28;20040;-71
2023/03/26 14:15:22;;;;;;;13.50;2.22;;;;;;;;;;5091824;28;20044;-71
2023/03/26 14:17:55;;;;;;;7.45;2.08;;;;;;;;;;5091520;28;20123;-72
2023/03/26 14:20:21;;;;;;;;;;;;;;;;;;5093319;28;20063;-72
2023/03/26 14:23:02;;;;;;;6.90;1.65;;;;;;;;;;5091637;28;19916;-72
2023/03/26 14:25:44;;;;;;;12.93;2.15;;;;;;;;;;5074798;28;20392;-71
2023/03/26 14:28:19;;;;;;;14.35;2.72;;;;;;;;;;5091618;28;20113;-71
2023/03/26 14:30:53;;;;;;;13.63;2.10;;;;;;;;;;5091742;28;20047;-71
2023/03/26 14:33:39;;;;;;;10.95;2.42;;;;;;;;;;5090450;28;20048;-71
2023/03/26 14:36:24;;;;;;;13.23;1.88;;;;;;;;;;5048074;28;20063;-71
2023/03/26 14:39:04;;;;;;;5.10;1.92;;;;;;;;;;5070923;28;20044;-71
2023/03/26 14:41:41;;;;;;;10.45;2.05;;;;;;;;;;5090418;28;20104;-71
2023/03/26 14:44:16;;;;;;;9.38;2.00;;;;;;;;;;5074512;28;20067;-71
2023/03/26 14:46:48;;;;;;;11.27;1.98;;;;;;;;;;5091282;28;20089;-71
2023/03/26 14:49:27;;;;;;;11.55;2.03;;;;;;;;;;5091816;28;20117;-72
2023/03/26 14:52:05;;;;;;;13.00;1.83;;;;;;;;;;5094918;28;20044;-72
2023/03/26 14:54:32;;;;;;;11.10;2.30;;;;;;;;;;5095116;28;20040;-71